createdAt,value
2018-08-12T00:00:10.672Z,0.00
2018-08-12T00:01:10.662Z,0.00
2018-08-12T00:02:10.642Z,0.00
2018-08-12T00:03:10.630Z,0.00
2018-08-12T00:04:10.617Z,0.00
2018-08-12T00:05:10.603Z,0.00
2018-08-12T00:06:10.592Z,0.00
2018-08-12T00:07:10.576Z,0.00
2018-08-12T00:08:10.561Z,0.00
2018-08-12T00:09:10.548Z,0.00
2018-08-12T00:10:10.534Z,0.00
2018-08-12T00:11:10.521Z,0.00
2018-08-12T00:12:10.509Z,0.00
2018-08-12T00:13:10.497Z,0.00
2018-08-12T00:14:10.480Z,0.00
2018-08-12T00:15:10.485Z,0.00
2018-08-12T00:16:10.459Z,0.00
2018-08-12T00:17:10.441Z,0.00
2018-08-12T00:18:10.433Z,0.00
2018-08-12T00:19:10.414Z,0.00
2018-08-12T00:20:10.400Z,0.00
2018-08-12T00:21:10.386Z,0.00
2018-08-12T00:22:10.373Z,0.00
2018-08-12T00:23:10.360Z,0.00
2018-08-12T00:24:10.348Z,0.00
2018-08-12T00:25:10.341Z,0.00
2018-08-12T00:26:10.324Z,0.00
2018-08-12T00:27:10.304Z,0.00
2018-08-12T00:28:10.291Z,0.00
2018-08-12T00:29:10.279Z,0.00
2018-08-12T00:30:10.264Z,0.00
2018-08-12T00:31:10.257Z,0.00
2018-08-12T00:32:10.235Z,0.00
2018-08-12T00:33:10.225Z,0.00
2018-08-12T00:34:10.209Z,0.00
2018-08-12T00:35:10.194Z,0.00
2018-08-12T00:36:10.182Z,0.00
2018-08-12T00:37:10.168Z,0.00
2018-08-12T00:38:10.154Z,0.00
2018-08-12T00:39:10.140Z,0.00
2018-08-12T00:40:10.125Z,0.00
2018-08-12T00:41:10.112Z,0.00
2018-08-12T00:42:10.099Z,0.00
2018-08-12T00:43:10.084Z,0.00
2018-08-12T00:44:10.075Z,0.00
2018-08-12T00:45:10.057Z,0.00
2018-08-12T00:46:10.046Z,0.00
2018-08-12T00:47:10.037Z,0.00
2018-08-12T00:48:10.021Z,0.00
2018-08-12T00:49:10.005Z,0.00
2018-08-12T00:50:09.988Z,0.00
2018-08-12T00:51:09.975Z,0.00
2018-08-12T00:52:09.960Z,0.00
2018-08-12T00:53:09.956Z,0.00
2018-08-12T00:54:09.933Z,0.00
2018-08-12T00:55:09.917Z,0.00
2018-08-12T00:56:09.904Z,0.00
2018-08-12T00:57:09.898Z,0.00
2018-08-12T00:58:09.875Z,0.00
2018-08-12T00:59:09.862Z,0.00
2018-08-12T01:00:09.851Z,0.00
2018-08-12T01:01:09.845Z,0.00
2018-08-12T01:02:09.823Z,0.00
2018-08-12T01:03:09.805Z,0.00
2018-08-12T01:04:09.794Z,0.00
2018-08-12T01:05:09.776Z,0.00
2018-08-12T01:06:09.769Z,0.00
2018-08-12T01:07:09.749Z,0.00
2018-08-12T01:08:09.736Z,0.00
2018-08-12T01:09:09.722Z,0.00
2018-08-12T01:10:09.706Z,0.00
2018-08-12T01:11:09.695Z,0.00
2018-08-12T01:12:09.677Z,0.00
2018-08-12T01:13:09.670Z,0.00
2018-08-12T01:14:09.655Z,0.00
2018-08-12T01:15:09.637Z,0.00
2018-08-12T01:16:09.622Z,0.00
2018-08-12T01:17:09.613Z,0.00
2018-08-12T01:18:09.600Z,0.00
2018-08-12T01:19:09.578Z,0.00
2018-08-12T01:20:09.570Z,0.00
2018-08-12T01:21:09.553Z,0.00
2018-08-12T01:22:09.537Z,0.00
2018-08-12T01:23:09.525Z,0.00
2018-08-12T01:24:09.506Z,0.00
2018-08-12T01:25:09.492Z,0.00
2018-08-12T01:26:09.477Z,0.00
2018-08-12T01:27:09.463Z,0.00
2018-08-12T01:28:09.451Z,0.00
2018-08-12T01:29:09.440Z,0.00
2018-08-12T01:30:09.424Z,0.00
2018-08-12T01:31:09.406Z,0.00
2018-08-12T01:32:09.395Z,0.00
2018-08-12T01:33:09.378Z,0.00
2018-08-12T01:34:09.362Z,0.00
2018-08-12T01:35:09.349Z,0.00
2018-08-12T01:36:09.337Z,0.00
2018-08-12T01:37:09.321Z,0.00
2018-08-12T01:38:09.306Z,0.00
2018-08-12T01:39:09.289Z,0.00
2018-08-12T01:40:09.280Z,0.00
2018-08-12T01:41:09.262Z,0.00
2018-08-12T01:42:09.247Z,0.00
2018-08-12T01:43:09.237Z,0.00
2018-08-12T01:44:09.216Z,0.00
2018-08-12T01:45:09.213Z,0.00
2018-08-12T01:46:09.189Z,0.00
2018-08-12T01:47:09.174Z,0.00
2018-08-12T01:48:09.159Z,0.00
2018-08-12T01:49:09.149Z,0.00
2018-08-12T01:50:09.132Z,0.00
2018-08-12T01:51:09.115Z,0.00
2018-08-12T01:52:09.100Z,0.00
2018-08-12T01:53:09.095Z,0.00
2018-08-12T01:54:09.077Z,0.00
2018-08-12T01:55:09.060Z,0.00
2018-08-12T01:56:09.048Z,0.00
2018-08-12T01:57:09.028Z,0.00
2018-08-12T01:58:09.016Z,0.00
2018-08-12T01:59:09.002Z,0.00
2018-08-12T02:00:08.987Z,0.00
2018-08-12T02:01:08.980Z,0.00
2018-08-12T02:02:08.958Z,0.00
2018-08-12T02:03:08.941Z,0.00
2018-08-12T02:04:08.925Z,0.00
2018-08-12T02:05:08.910Z,0.00
2018-08-12T02:06:08.899Z,0.00
2018-08-12T02:07:08.881Z,0.00
2018-08-12T02:08:08.867Z,0.00
2018-08-12T02:09:08.854Z,0.00
2018-08-12T02:10:08.846Z,0.00
2018-08-12T02:11:08.821Z,0.00
2018-08-12T02:12:08.808Z,0.00
2018-08-12T02:13:08.792Z,0.00
2018-08-12T02:14:08.783Z,0.00
2018-08-12T02:15:08.763Z,0.00
2018-08-12T02:16:08.753Z,0.00
2018-08-12T02:17:08.735Z,0.00
2018-08-12T02:18:08.728Z,0.00
2018-08-12T02:19:08.706Z,0.00
2018-08-12T02:20:08.696Z,0.00
2018-08-12T02:21:08.676Z,0.00
2018-08-12T02:22:08.662Z,0.00
2018-08-12T02:23:08.650Z,0.00
2018-08-12T02:24:08.641Z,0.00
2018-08-12T02:25:08.619Z,0.00
2018-08-12T02:26:08.607Z,0.00
2018-08-12T02:27:08.590Z,0.00
2018-08-12T02:28:08.574Z,0.00
2018-08-12T02:29:08.559Z,0.00
2018-08-12T02:30:08.552Z,0.00
2018-08-12T02:31:08.532Z,0.00
2018-08-12T02:32:08.519Z,0.00
2018-08-12T02:33:08.503Z,0.00
2018-08-12T02:34:08.496Z,0.00
2018-08-12T02:35:08.477Z,0.00
2018-08-12T02:36:08.495Z,0.00
2018-08-12T02:37:08.444Z,0.00
2018-08-12T02:38:08.430Z,0.00
2018-08-12T02:39:08.416Z,0.00
2018-08-12T02:40:08.400Z,0.00
2018-08-12T02:41:08.385Z,0.00
2018-08-12T02:42:08.375Z,0.00
2018-08-12T02:43:08.357Z,0.00
2018-08-12T02:44:08.341Z,0.00
2018-08-12T02:45:08.328Z,0.00
2018-08-12T02:46:08.330Z,0.00
2018-08-12T02:47:08.301Z,0.00
2018-08-12T02:48:08.288Z,0.00
2018-08-12T02:49:08.272Z,0.00
2018-08-12T02:50:08.254Z,0.00
2018-08-12T02:51:08.250Z,0.00
2018-08-12T02:52:08.231Z,0.00
2018-08-12T02:53:08.212Z,0.00
2018-08-12T02:54:08.197Z,0.00
2018-08-12T02:55:08.183Z,0.00
2018-08-12T02:56:08.168Z,0.00
2018-08-12T02:57:08.154Z,0.00
2018-08-12T02:58:08.140Z,0.00
2018-08-12T02:59:08.123Z,0.00
2018-08-12T03:00:08.107Z,0.00
2018-08-12T03:01:08.092Z,0.00
2018-08-12T03:02:08.083Z,0.00
2018-08-12T03:03:08.062Z,0.00
2018-08-12T03:04:08.052Z,0.00
2018-08-12T03:05:08.045Z,0.00
2018-08-12T03:06:08.018Z,0.00
2018-08-12T03:07:08.008Z,0.00
2018-08-12T03:08:07.989Z,0.00
2018-08-12T03:09:07.978Z,0.00
2018-08-12T03:10:07.964Z,0.00
2018-08-12T03:11:07.945Z,0.00
2018-08-12T03:12:07.930Z,0.00
2018-08-12T03:13:07.924Z,0.00
2018-08-12T03:14:07.899Z,0.00
2018-08-12T03:15:07.885Z,0.00
2018-08-12T03:16:07.872Z,0.00
2018-08-12T03:17:07.871Z,0.00
2018-08-12T03:18:07.841Z,0.00
2018-08-12T03:19:07.824Z,0.00
2018-08-12T03:20:07.810Z,0.00
2018-08-12T03:21:07.800Z,0.00
2018-08-12T03:22:07.781Z,0.00
2018-08-12T03:23:07.764Z,0.00
2018-08-12T03:24:07.749Z,0.00
2018-08-12T03:25:07.732Z,0.00
2018-08-12T03:26:07.720Z,0.00
2018-08-12T03:27:07.702Z,0.00
2018-08-12T03:28:07.688Z,0.00
2018-08-12T03:29:07.674Z,0.00
2018-08-12T03:30:07.751Z,0.00
2018-08-12T03:31:07.645Z,0.00
2018-08-12T03:32:07.627Z,0.00
2018-08-12T03:33:07.612Z,0.00
2018-08-12T03:34:07.603Z,0.00
2018-08-12T03:35:07.583Z,0.00
2018-08-12T03:36:07.573Z,4.00
2018-08-12T03:37:07.552Z,4.00
2018-08-12T03:38:07.542Z,0.00
2018-08-12T03:39:07.520Z,0.00
2018-08-12T03:40:07.511Z,4.00
2018-08-12T03:41:07.494Z,4.00
2018-08-12T03:42:07.480Z,4.00
2018-08-12T03:43:07.463Z,4.00
2018-08-12T03:44:07.443Z,4.00
2018-08-12T03:45:07.433Z,8.00
2018-08-12T03:46:07.413Z,8.00
2018-08-12T03:47:07.398Z,12.00
2018-08-12T03:48:07.383Z,12.00
2018-08-12T03:49:07.366Z,12.00
2018-08-12T03:50:07.353Z,16.00
2018-08-12T03:51:07.337Z,12.00
2018-08-12T03:52:07.323Z,16.00
2018-08-12T03:53:07.308Z,20.00
2018-08-12T03:54:07.292Z,20.00
2018-08-12T03:55:07.277Z,24.00
2018-08-12T03:56:07.269Z,28.00
2018-08-12T03:57:07.247Z,32.00
2018-08-12T03:58:07.235Z,36.00
2018-08-12T03:59:07.214Z,40.00
2018-08-12T04:00:07.200Z,44.00
2018-08-12T04:01:07.186Z,44.00
2018-08-12T04:02:07.170Z,52.00
2018-08-12T04:03:07.155Z,56.00
2018-08-12T04:04:07.142Z,60.00
2018-08-12T04:05:07.125Z,72.00
2018-08-12T04:06:07.111Z,76.00
2018-08-12T04:07:07.094Z,84.00
2018-08-12T04:08:07.080Z,88.00
2018-08-12T04:09:07.064Z,96.00
2018-08-12T04:10:07.052Z,108.00
2018-08-12T04:11:07.038Z,116.00
2018-08-12T04:12:07.018Z,128.00
2018-08-12T04:13:07.004Z,136.00
2018-08-12T04:14:06.988Z,148.00
2018-08-12T04:15:06.969Z,160.00
2018-08-12T04:16:06.966Z,172.00
2018-08-12T04:17:06.941Z,184.00
2018-08-12T04:18:06.925Z,196.00
2018-08-12T04:19:07.079Z,208.00
2018-08-12T04:20:06.948Z,220.00
2018-08-12T04:21:06.882Z,236.00
2018-08-12T04:22:06.864Z,248.00
2018-08-12T04:23:06.848Z,268.00
2018-08-12T04:24:06.837Z,288.00
2018-08-12T04:25:06.819Z,304.00
2018-08-12T04:26:06.803Z,320.00
2018-08-12T04:27:06.788Z,336.00
2018-08-12T04:28:06.778Z,356.00
2018-08-12T04:29:06.762Z,384.00
2018-08-12T04:30:06.740Z,404.00
2018-08-12T04:31:06.729Z,420.00
2018-08-12T04:32:06.710Z,436.00
2018-08-12T04:33:06.700Z,452.00
2018-08-12T04:34:06.679Z,468.00
2018-08-12T04:35:06.665Z,484.00
2018-08-12T04:36:06.649Z,500.00
2018-08-12T04:37:06.633Z,520.00
2018-08-12T04:38:06.620Z,556.00
2018-08-12T04:39:06.601Z,588.00
2018-08-12T04:40:06.587Z,612.00
2018-08-12T04:41:06.573Z,636.00
2018-08-12T04:42:06.567Z,656.00
2018-08-12T04:43:06.547Z,676.00
2018-08-12T04:44:06.521Z,704.00
2018-08-12T04:45:06.513Z,728.00
2018-08-12T04:46:06.649Z,740.00
2018-08-12T04:47:06.481Z,756.00
2018-08-12T04:48:06.461Z,756.00
2018-08-12T04:49:06.447Z,756.00
2018-08-12T04:50:06.429Z,764.00
2018-08-12T04:51:06.417Z,784.00
2018-08-12T04:52:06.400Z,812.00
2018-08-12T04:53:06.382Z,844.00
2018-08-12T04:54:06.366Z,884.00
2018-08-12T04:55:06.349Z,916.00
2018-08-12T04:56:06.333Z,940.00
2018-08-12T04:57:06.319Z,968.00
2018-08-12T04:58:06.305Z,1004.00
2018-08-12T04:59:06.286Z,1044.00
2018-08-12T05:00:06.275Z,1108.00
2018-08-12T05:01:06.256Z,1176.00
2018-08-12T05:02:06.242Z,1224.00
2018-08-12T05:03:06.224Z,1268.00
2018-08-12T05:04:06.212Z,1332.00
2018-08-12T05:05:06.193Z,1404.00
2018-08-12T05:06:06.178Z,1484.00
2018-08-12T05:07:06.165Z,1596.00
2018-08-12T05:08:06.147Z,1656.00
2018-08-12T05:09:06.131Z,1692.00
2018-08-12T05:10:06.127Z,1732.00
2018-08-12T05:11:06.099Z,1764.00
2018-08-12T05:12:06.083Z,1788.00
2018-08-12T05:13:06.067Z,1796.00
2018-08-12T05:14:06.056Z,1800.00
2018-08-12T05:15:06.037Z,1808.00
2018-08-12T05:16:06.021Z,1800.00
2018-08-12T05:17:06.006Z,1796.00
2018-08-12T05:18:05.991Z,1840.00
2018-08-12T05:19:05.974Z,1936.00
2018-08-12T05:20:05.966Z,2088.00
2018-08-12T05:21:05.942Z,2276.00
2018-08-12T05:22:05.928Z,2448.00
2018-08-12T05:23:05.910Z,2600.00
2018-08-12T05:24:05.896Z,2704.00
2018-08-12T05:25:05.892Z,2720.00
2018-08-12T05:26:05.861Z,2752.00
2018-08-12T05:27:05.847Z,2796.00
2018-08-12T05:28:05.833Z,2752.00
2018-08-12T05:29:05.816Z,2748.00
2018-08-12T05:30:05.798Z,2740.00
2018-08-12T05:31:05.785Z,2740.00
2018-08-12T05:32:05.772Z,2720.00
2018-08-12T05:33:05.750Z,2708.00
2018-08-12T05:34:05.736Z,2752.00
2018-08-12T05:35:05.719Z,2776.00
2018-08-12T05:36:05.751Z,2788.00
2018-08-12T05:37:05.688Z,2852.00
2018-08-12T05:38:05.675Z,2892.00
2018-08-12T05:39:05.656Z,2864.00
2018-08-12T05:40:05.642Z,2772.00
2018-08-12T05:41:05.624Z,2648.00
2018-08-12T05:42:05.613Z,2700.00
2018-08-12T05:43:05.604Z,2628.00
2018-08-12T05:44:05.581Z,2552.00
2018-08-12T05:45:05.567Z,2548.00
2018-08-12T05:46:05.549Z,2600.00
2018-08-12T05:47:05.531Z,2708.00
2018-08-12T05:48:05.517Z,2836.00
2018-08-12T05:49:05.500Z,3024.00
2018-08-12T05:50:05.484Z,3132.00
2018-08-12T05:51:05.572Z,3212.00
2018-08-12T05:52:05.454Z,3348.00
2018-08-12T05:53:05.438Z,3540.00
2018-08-12T05:54:05.422Z,3612.00
2018-08-12T05:55:05.407Z,3616.00
2018-08-12T05:56:05.393Z,3560.00
2018-08-12T05:57:05.407Z,3484.00
2018-08-12T05:58:05.360Z,3436.00
2018-08-12T05:59:05.349Z,3420.00
2018-08-12T06:00:05.330Z,3456.00
2018-08-12T06:01:05.315Z,3496.00
2018-08-12T06:02:05.303Z,3392.00
2018-08-12T06:03:05.288Z,3308.00
2018-08-12T06:04:05.272Z,3348.00
2018-08-12T06:05:05.254Z,3240.00
2018-08-12T06:06:05.239Z,3044.00
2018-08-12T06:07:05.226Z,3072.00
2018-08-12T06:08:05.204Z,3136.00
2018-08-12T06:09:05.198Z,3272.00
2018-08-12T06:10:05.179Z,3468.00
2018-08-12T06:11:05.164Z,3548.00
2018-08-12T06:12:05.146Z,3584.00
2018-08-12T06:13:05.132Z,3644.00
2018-08-12T06:14:05.129Z,3640.00
2018-08-12T06:15:05.102Z,3672.00
2018-08-12T06:16:05.089Z,3692.00
2018-08-12T06:17:05.073Z,3724.00
2018-08-12T06:18:05.059Z,3716.00
2018-08-12T06:19:05.043Z,3720.00
2018-08-12T06:20:05.027Z,3704.00
2018-08-12T06:21:05.016Z,3720.00
2018-08-12T06:22:05.000Z,3720.00
2018-08-12T06:23:04.981Z,3756.00
2018-08-12T06:24:04.971Z,3816.00
2018-08-12T06:25:04.955Z,3888.00
2018-08-12T06:26:04.941Z,3928.00
2018-08-12T06:27:04.929Z,3964.00
2018-08-12T06:28:04.910Z,3980.00
2018-08-12T06:29:04.894Z,4016.00
2018-08-12T06:30:04.880Z,4040.00
2018-08-12T06:31:04.863Z,4076.00
2018-08-12T06:32:04.854Z,4104.00
2018-08-12T06:33:04.842Z,4124.00
2018-08-12T06:34:04.821Z,4112.00
2018-08-12T06:35:04.806Z,4104.00
2018-08-12T06:36:04.797Z,4108.00
2018-08-12T06:37:04.781Z,4100.00
2018-08-12T06:38:04.766Z,4072.00
2018-08-12T06:39:04.748Z,4048.00
2018-08-12T06:40:04.737Z,3952.00
2018-08-12T06:41:04.720Z,3980.00
2018-08-12T06:42:04.705Z,4140.00
2018-08-12T06:43:04.691Z,4168.00
2018-08-12T06:44:04.677Z,4172.00
2018-08-12T06:45:04.668Z,4192.00
2018-08-12T06:46:04.655Z,4216.00
2018-08-12T06:47:04.640Z,4244.00
2018-08-12T06:48:04.622Z,4280.00
2018-08-12T06:49:04.609Z,4308.00
2018-08-12T06:50:04.593Z,4348.00
2018-08-12T06:51:04.578Z,4384.00
2018-08-12T06:52:04.631Z,4416.00
2018-08-12T06:53:04.556Z,4444.00
2018-08-12T06:54:04.537Z,4488.00
2018-08-12T06:55:04.525Z,4556.00
2018-08-12T06:56:04.515Z,4608.00
2018-08-12T06:57:04.497Z,4676.00
2018-08-12T06:58:04.488Z,4752.00
2018-08-12T06:59:04.468Z,4800.00
2018-08-12T07:00:04.458Z,4816.00
2018-08-12T07:01:04.444Z,4812.00
2018-08-12T07:02:04.433Z,4772.00
2018-08-12T07:03:04.416Z,4720.00
2018-08-12T07:04:04.402Z,4708.00
2018-08-12T07:05:04.392Z,4716.00
2018-08-12T07:06:04.379Z,4724.00
2018-08-12T07:07:04.363Z,4724.00
2018-08-12T07:08:04.350Z,4740.00
2018-08-12T07:09:04.337Z,4764.00
2018-08-12T07:10:04.327Z,4808.00
2018-08-12T07:11:04.313Z,4576.00
2018-08-12T07:12:04.298Z,4856.00
2018-08-12T07:13:04.288Z,4816.00
2018-08-12T07:14:04.275Z,4764.00
2018-08-12T07:15:04.264Z,4732.00
2018-08-12T07:16:04.249Z,4728.00
2018-08-12T07:17:04.235Z,4752.00
2018-08-12T07:18:04.222Z,4784.00
2018-08-12T07:19:04.212Z,4820.00
2018-08-12T07:20:04.196Z,4860.00
2018-08-12T07:21:04.189Z,4912.00
2018-08-12T07:22:04.180Z,4960.00
2018-08-12T07:23:04.160Z,4996.00
2018-08-12T07:24:04.151Z,5044.00
2018-08-12T07:25:04.140Z,5112.00
2018-08-12T07:26:04.127Z,5180.00
2018-08-12T07:27:04.117Z,5224.00
2018-08-12T07:28:04.100Z,5292.00
2018-08-12T07:29:04.090Z,5396.00
2018-08-12T07:30:04.084Z,5516.00
2018-08-12T07:31:04.064Z,5688.00
2018-08-12T07:32:04.058Z,5928.00
2018-08-12T07:33:04.052Z,6320.00
2018-08-12T07:34:04.041Z,7032.00
2018-08-12T07:35:04.033Z,13144.00
2018-08-12T07:36:04.015Z,27584.00
2018-08-12T07:37:04.015Z,46880.00
2018-08-12T07:38:04.002Z,65760.00
2018-08-12T07:39:03.989Z,78944.00
2018-08-12T07:40:03.984Z,86688.00
2018-08-12T07:41:03.979Z,86080.00
2018-08-12T07:42:03.970Z,84896.00
2018-08-12T07:43:03.967Z,81344.00
2018-08-12T07:44:03.958Z,80768.00
2018-08-12T07:45:03.952Z,81280.00
2018-08-12T07:46:03.953Z,82144.00
2018-08-12T07:47:03.946Z,84928.00
2018-08-12T07:48:03.938Z,84160.00
2018-08-12T07:49:03.939Z,83008.00
2018-08-12T07:50:03.938Z,81504.00
2018-08-12T07:51:03.931Z,83456.00
2018-08-12T07:52:03.926Z,85056.00
2018-08-12T07:53:03.924Z,83264.00
2018-08-12T07:54:03.926Z,80992.00
2018-08-12T07:55:03.926Z,82784.00
2018-08-12T07:56:03.922Z,86112.00
2018-08-12T07:57:03.919Z,84256.00
2018-08-12T07:58:03.924Z,80544.00
2018-08-12T07:59:03.919Z,85824.00
2018-08-12T08:00:03.919Z,85664.00
2018-08-12T08:01:03.926Z,79616.00
2018-08-12T08:02:03.922Z,85568.00
2018-08-12T08:03:03.922Z,84160.00
2018-08-12T08:04:03.927Z,83072.00
2018-08-12T08:05:03.930Z,85504.00
2018-08-12T08:06:03.932Z,87616.00
2018-08-12T08:07:03.933Z,83008.00
2018-08-12T08:08:03.931Z,82208.00
2018-08-12T08:09:03.936Z,80256.00
2018-08-12T08:10:03.938Z,67616.00
2018-08-12T08:11:03.943Z,87616.00
2018-08-12T08:12:03.945Z,61024.00
2018-08-12T08:13:03.947Z,55264.00
2018-08-12T08:14:03.950Z,32480.00
2018-08-12T08:15:03.954Z,85920.00
2018-08-12T08:16:03.959Z,59136.00
2018-08-12T08:17:03.954Z,26144.00
2018-08-12T08:18:03.960Z,46368.00
2018-08-12T08:19:03.962Z,62688.00
2018-08-12T08:20:03.968Z,59200.00
2018-08-12T08:21:03.966Z,71136.00
2018-08-12T08:22:03.965Z,49312.00
2018-08-12T08:23:03.966Z,57696.00
2018-08-12T08:24:03.966Z,37696.00
2018-08-12T08:25:03.972Z,56640.00
2018-08-12T08:26:03.968Z,50496.00
2018-08-12T08:27:03.980Z,35072.00
2018-08-12T08:28:03.971Z,67616.00
2018-08-12T08:29:03.974Z,67328.00
2018-08-12T08:30:03.972Z,55744.00
2018-08-12T08:31:03.975Z,60576.00
2018-08-12T08:32:04.064Z,75136.00
2018-08-12T08:33:03.972Z,64672.00
2018-08-12T08:34:03.973Z,72000.00
2018-08-12T08:35:03.973Z,44448.00
2018-08-12T08:36:03.981Z,55424.00
2018-08-12T08:37:03.975Z,69184.00
2018-08-12T08:38:04.027Z,72032.00
2018-08-12T08:39:03.975Z,68352.00
2018-08-12T08:40:03.981Z,70976.00
2018-08-12T08:41:03.983Z,73536.00
2018-08-12T08:42:03.975Z,83872.00
2018-08-12T08:43:03.985Z,90400.00
2018-08-12T08:44:04.028Z,89120.00
2018-08-12T08:45:03.989Z,81984.00
2018-08-12T08:46:03.990Z,76064.00
2018-08-12T08:47:03.984Z,73792.00
2018-08-12T08:48:03.993Z,73504.00
2018-08-12T08:49:03.988Z,75648.00
2018-08-12T08:50:04.094Z,75552.00
2018-08-12T08:51:03.999Z,74080.00
2018-08-12T08:52:03.995Z,68224.00
2018-08-12T08:53:04.003Z,71072.00
2018-08-12T08:54:04.001Z,72768.00
2018-08-12T08:55:04.002Z,71360.00
2018-08-12T08:56:04.059Z,69696.00
2018-08-12T08:57:04.009Z,72896.00
2018-08-12T08:58:04.011Z,72576.00
2018-08-12T08:59:04.013Z,65184.00
2018-08-12T09:00:04.019Z,64288.00
2018-08-12T09:01:04.021Z,66176.00
2018-08-12T09:02:04.039Z,68096.00
2018-08-12T09:03:04.029Z,68928.00
2018-08-12T09:04:04.032Z,67616.00
2018-08-12T09:05:04.034Z,67040.00
2018-08-12T09:06:04.035Z,67648.00
2018-08-12T09:07:04.036Z,70880.00
2018-08-12T09:08:04.149Z,69952.00
2018-08-12T09:09:04.303Z,37760.00
2018-08-12T09:10:04.044Z,32224.00
2018-08-12T09:11:04.047Z,65024.00
2018-08-12T09:12:04.053Z,54688.00
2018-08-12T09:13:04.051Z,54464.00
2018-08-12T09:14:04.051Z,50016.00
2018-08-12T09:15:04.057Z,70304.00
2018-08-12T09:16:04.051Z,66336.00
2018-08-12T09:17:04.059Z,68672.00
2018-08-12T09:18:04.099Z,70688.00
2018-08-12T09:19:04.055Z,67040.00
2018-08-12T09:20:04.057Z,71872.00
2018-08-12T09:21:04.056Z,71136.00
2018-08-12T09:22:04.055Z,71424.00
2018-08-12T09:23:04.056Z,64352.00
2018-08-12T09:24:04.080Z,60416.00
2018-08-12T09:25:04.056Z,62624.00
2018-08-12T09:26:04.058Z,60416.00
2018-08-12T09:27:04.056Z,57888.00
2018-08-12T09:28:04.056Z,58880.00
2018-08-12T09:29:04.062Z,71712.00
2018-08-12T09:30:04.056Z,64384.00
2018-08-12T09:31:04.063Z,60416.00
2018-08-12T09:32:04.070Z,41376.00
2018-08-12T09:33:04.055Z,29408.00
2018-08-12T09:34:04.057Z,29024.00
2018-08-12T09:35:04.060Z,29536.00
2018-08-12T09:36:04.053Z,31296.00
2018-08-12T09:37:04.074Z,30944.00
2018-08-12T09:38:04.057Z,32832.00
2018-08-12T09:39:04.055Z,35296.00
2018-08-12T09:40:04.055Z,35136.00
2018-08-12T09:41:04.050Z,27136.00
2018-08-12T09:42:04.051Z,18624.00
2018-08-12T09:43:04.104Z,16864.00
2018-08-12T09:44:04.047Z,16544.00
2018-08-12T09:45:04.048Z,16224.00
2018-08-12T09:46:04.044Z,15680.00
2018-08-12T09:47:04.041Z,14608.00
2018-08-12T09:48:04.050Z,12644.00
2018-08-12T09:49:04.041Z,11888.00
2018-08-12T09:50:04.043Z,10324.00
2018-08-12T09:51:04.035Z,14444.00
2018-08-12T09:52:04.034Z,15840.00
2018-08-12T09:53:04.033Z,15296.00
2018-08-12T09:54:04.040Z,14024.00
2018-08-12T09:55:04.028Z,14700.00
2018-08-12T09:56:04.029Z,13972.00
2018-08-12T09:57:04.024Z,13008.00
2018-08-12T09:58:04.020Z,12984.00
2018-08-12T09:59:04.018Z,12908.00
2018-08-12T10:00:04.013Z,13084.00
2018-08-12T10:01:04.011Z,13032.00
2018-08-12T10:02:04.010Z,12616.00
2018-08-12T10:03:04.015Z,12368.00
2018-08-12T10:04:04.007Z,12480.00
2018-08-12T10:05:04.010Z,12648.00
2018-08-12T10:06:03.997Z,12444.00
2018-08-12T10:07:03.993Z,12220.00
2018-08-12T10:08:03.992Z,12240.00
2018-08-12T10:09:03.986Z,12024.00
2018-08-12T10:10:03.983Z,11812.00
2018-08-12T10:11:03.980Z,11832.00
2018-08-12T10:12:03.973Z,10916.00
2018-08-12T10:13:03.973Z,10128.00
2018-08-12T10:14:03.974Z,10984.00
2018-08-12T10:15:03.962Z,11616.00
2018-08-12T10:16:03.958Z,11448.00
2018-08-12T10:17:03.966Z,11368.00
2018-08-12T10:18:03.956Z,10956.00
2018-08-12T10:19:03.948Z,11216.00
2018-08-12T10:20:03.946Z,11164.00
2018-08-12T10:21:03.941Z,11268.00
2018-08-12T10:22:03.937Z,11224.00
2018-08-12T10:23:03.930Z,11396.00
2018-08-12T10:24:03.929Z,11440.00
2018-08-12T10:25:03.919Z,11332.00
2018-08-12T10:26:03.918Z,11116.00
2018-08-12T10:27:03.921Z,11224.00
2018-08-12T10:28:03.907Z,11252.00
2018-08-12T10:29:03.917Z,11112.00
2018-08-12T10:30:03.905Z,10480.00
2018-08-12T10:31:03.898Z,10060.00
2018-08-12T10:32:03.891Z,9760.00
2018-08-12T10:33:03.889Z,9244.00
2018-08-12T10:34:03.882Z,9336.00
2018-08-12T10:35:03.875Z,8016.00
2018-08-12T10:36:03.887Z,10736.00
2018-08-12T10:37:03.882Z,10676.00
2018-08-12T10:38:03.863Z,9360.00
2018-08-12T10:39:03.860Z,9160.00
2018-08-12T10:40:03.856Z,8960.00
2018-08-12T10:41:03.851Z,8060.00
2018-08-12T10:42:03.847Z,8244.00
2018-08-12T10:43:03.840Z,10212.00
2018-08-12T10:44:03.839Z,10448.00
2018-08-12T10:45:03.830Z,10392.00
2018-08-12T10:46:03.830Z,10508.00
2018-08-12T10:47:03.818Z,10428.00
2018-08-12T10:48:03.814Z,10172.00
2018-08-12T10:49:03.821Z,10336.00
2018-08-12T10:50:03.815Z,10008.00
2018-08-12T10:51:03.799Z,10008.00
2018-08-12T10:52:03.798Z,9904.00
2018-08-12T10:53:03.792Z,9920.00
2018-08-12T10:54:03.787Z,9888.00
2018-08-12T10:55:03.782Z,9768.00
2018-08-12T10:56:03.776Z,9796.00
2018-08-12T10:57:03.775Z,9700.00
2018-08-12T10:58:03.776Z,9780.00
2018-08-12T10:59:03.759Z,9732.00
2018-08-12T11:00:03.756Z,9824.00
2018-08-12T11:01:03.758Z,9548.00
2018-08-12T11:02:03.749Z,9540.00
2018-08-12T11:03:03.746Z,9448.00
2018-08-12T11:04:03.739Z,9356.00
2018-08-12T11:05:03.730Z,9548.00
2018-08-12T11:06:03.736Z,9596.00
2018-08-12T11:07:03.722Z,9648.00
2018-08-12T11:08:03.719Z,9552.00
2018-08-12T11:09:03.713Z,9700.00
2018-08-12T11:10:03.707Z,9816.00
2018-08-12T11:11:03.710Z,9436.00
2018-08-12T11:12:03.700Z,9484.00
2018-08-12T11:13:03.699Z,9160.00
2018-08-12T11:14:03.687Z,9440.00
2018-08-12T11:15:03.681Z,9684.00
2018-08-12T11:16:03.673Z,9572.00
2018-08-12T11:17:03.669Z,9528.00
2018-08-12T11:18:03.670Z,9464.00
2018-08-12T11:19:03.662Z,5376.00
2018-08-12T11:20:03.659Z,9480.00
2018-08-12T11:21:03.649Z,8304.00
2018-08-12T11:22:03.652Z,6976.00
2018-08-12T11:23:03.640Z,8296.00
2018-08-12T11:24:03.640Z,7424.00
2018-08-12T11:25:03.631Z,8580.00
2018-08-12T11:26:03.623Z,9028.00
2018-08-12T11:27:03.621Z,9468.00
2018-08-12T11:28:03.616Z,9256.00
2018-08-12T11:29:03.620Z,9468.00
2018-08-12T11:30:03.605Z,9576.00
2018-08-12T11:31:03.600Z,9468.00
2018-08-12T11:32:03.605Z,9140.00
2018-08-12T11:33:03.589Z,9112.00
2018-08-12T11:34:03.591Z,8904.00
2018-08-12T11:35:03.578Z,8132.00
2018-08-12T11:36:03.582Z,7544.00
2018-08-12T11:37:03.571Z,8136.00
2018-08-12T11:38:03.570Z,8504.00
2018-08-12T11:39:03.566Z,8732.00
2018-08-12T11:40:03.558Z,8728.00
2018-08-12T11:41:03.552Z,7964.00
2018-08-12T11:42:03.548Z,8532.00
2018-08-12T11:43:03.539Z,8280.00
2018-08-12T11:44:03.537Z,8328.00
2018-08-12T11:45:03.526Z,9244.00
2018-08-12T11:46:03.521Z,9040.00
2018-08-12T11:47:03.515Z,9100.00
2018-08-12T11:48:03.512Z,9404.00
2018-08-12T11:49:03.521Z,5404.00
2018-08-12T11:50:03.499Z,6000.00
2018-08-12T11:51:03.496Z,5720.00
2018-08-12T11:52:03.490Z,9392.00
2018-08-12T11:53:03.483Z,9832.00
2018-08-12T11:54:03.477Z,9956.00
2018-08-12T11:55:03.480Z,9652.00
2018-08-12T11:56:03.469Z,10568.00
2018-08-12T11:57:03.539Z,10844.00
2018-08-12T11:58:03.458Z,10600.00
2018-08-12T11:59:03.451Z,10184.00
2018-08-12T12:00:03.448Z,10920.00
2018-08-12T12:01:03.443Z,11040.00
2018-08-12T12:02:03.477Z,9560.00
2018-08-12T12:03:03.446Z,9892.00
2018-08-12T12:04:03.426Z,10172.00
2018-08-12T12:05:03.424Z,11044.00
2018-08-12T12:06:03.432Z,10944.00
2018-08-12T12:07:03.419Z,10892.00
2018-08-12T12:08:03.406Z,9168.00
2018-08-12T12:09:03.404Z,8344.00
2018-08-12T12:10:03.397Z,9632.00
2018-08-12T12:11:03.391Z,7996.00
2018-08-12T12:12:03.389Z,8696.00
2018-08-12T12:13:03.383Z,9988.00
2018-08-12T12:14:03.377Z,9340.00
2018-08-12T12:15:03.424Z,9120.00
2018-08-12T12:16:03.368Z,9632.00
2018-08-12T12:17:03.364Z,10692.00
2018-08-12T12:18:03.360Z,9692.00
2018-08-12T12:19:03.347Z,10808.00
2018-08-12T12:20:03.343Z,10476.00
2018-08-12T12:21:03.338Z,10500.00
2018-08-12T12:22:03.345Z,10668.00
2018-08-12T12:23:03.330Z,10852.00